Time;durP1;ratioP1;P1;durP2;ratioP2;P2;SDS_P1;SDS_P2;PMS_P1;PMS_P2;Temp;Humidity;BMP_temperature;BMP_pressure;BME280_temperature;BME280_humidity;BME280_pressure;Samples;Min_cycle;Max_cycle;Signal;HPM_P1;HPM_P2
2022/05/30 00:01:46;;;;;;;;;;;;;;;20.81;41.63;95080.97;10353892;28;2209;-61
2022/05/30 00:06:47;;;;;;;;;;;;;;;20.80;41.40;95069.66;10356428;28;2327;-59
2022/05/30 00:11:50;;;;;;;;;;;;;;;20.79;41.28;95067.31;10337957;28;2155;-61
2022/05/30 00:16:50;;;;;;;;;;;;;;;20.76;41.38;95063.41;10342893;28;2342;-61
2022/05/30 00:21:52;;;;;;;;;;;;;;;20.75;41.43;95071.59;10342645;28;2306;-59
2022/05/30 00:26:53;;;;;;;;;;;;;;;20.74;41.51;95073.44;10350325;28;2299;-62
2022/05/30 00:31:53;;;;;;;;;;;;;;;20.73;41.56;95061.34;10332940;28;2343;-62
2022/05/30 00:36:54;;;;;;;;;;;;;;;20.72;41.38;95057.16;10357649;28;2224;-60
2022/05/30 00:42:26;;;;;;;;;;;;;;;20.74;41.22;95060.28;10335944;28;2200;-61
2022/05/30 00:47:26;;;;;;;;;;;;;;;20.71;41.40;95054.81;10327441;28;2304;-61
2022/05/30 00:52:34;;;;;;;;;;;;;;;20.70;41.38;95054.03;10331792;28;2248;-60
2022/05/30 00:57:35;;;;;;;;;;;;;;;20.70;41.55;95048.78;10347654;28;2149;-61
2022/05/30 01:02:36;;;;;;;;;;;;;;;20.70;41.51;95042.72;10335778;28;2487;-61
2022/05/30 01:07:37;;;;;;;;;;;;;;;20.68;41.37;95040.38;10332234;28;2253;-62
2022/05/30 01:12:39;;;;;;;;;;;;;;;20.69;41.20;95038.53;10332101;28;2322;-61
2022/05/30 01:17:47;;;;;;;;;;;;;;;20.67;41.30;95038.81;10341147;28;2220;-61
2022/05/30 01:22:54;;;;;;;;;;;;;;;20.65;41.46;95024.38;10350403;28;2292;-61
2022/05/30 01:28:10;;;;;;;;;;;;;;;20.65;41.25;95019.88;10358560;28;2490;-60
2022/05/30 01:33:16;;;;;;;;;;;;;;;20.64;41.18;95012.28;10336491;28;2315;-62
2022/05/30 01:38:17;;;;;;;;;;;;;;;20.63;41.38;95011.50;10351549;28;2416;-61
2022/05/30 01:43:18;;;;;;;;;;;;;;;20.63;41.22;95016.75;10328420;28;2292;-58
2022/05/30 01:48:19;;;;;;;;;;;;;;;20.63;41.11;95016.00;10343944;28;2402;-62
2022/05/30 01:53:19;;;;;;;;;;;;;;;20.62;41.20;95003.88;10339048;28;2449;-61
2022/05/30 01:58:20;;;;;;;;;;;;;;;20.60;41.09;94991.03;10342313;28;2369;-60
2022/05/30 02:03:20;;;;;;;;;;;;;;;20.61;40.90;94997.84;10345239;28;2405;-60
2022/05/30 02:08:21;;;;;;;;;;;;;;;20.60;41.13;94988.38;10351828;28;2397;-60
2022/05/30 02:13:22;;;;;;;;;;;;;;;20.60;41.03;94980.50;10347185;28;2359;-59
2022/05/30 02:18:23;;;;;;;;;;;;;;;20.58;40.91;94980.00;10351700;28;2306;-58
2022/05/30 02:23:23;;;;;;;;;;;;;;;20.58;41.04;94977.38;10349828;28;2370;-60
2022/05/30 02:28:24;;;;;;;;;;;;;;;20.58;41.05;94990.53;10361330;28;2421;-60
2022/05/30 02:38:44;;;;;;;;;;;;;;;20.56;40.91;94984.78;10357873;28;2509;-61
2022/05/30 02:43:46;;;;;;;;;;;;;;;20.56;40.93;94987.41;10337646;28;2438;-61
2022/05/30 02:48:47;;;;;;;;;;;;;;;20.56;40.69;94989.25;10347585;28;2500;-61
2022/05/30 02:53:47;;;;;;;;;;;;;;;20.54;40.93;94992.19;10348232;28;2348;-62
2022/05/30 02:58:48;;;;;;;;;;;;;;;20.55;40.97;94995.56;10339696;28;2407;-60
2022/05/30 03:03:48;;;;;;;;;;;;;;;20.54;40.88;94992.19;10342620;28;2440;-61
2022/05/30 03:08:50;;;;;;;;;;;;;;;20.53;40.78;94989.81;10345305;28;2342;-60
2022/05/30 03:13:50;;;;;;;;;;;;;;;20.52;40.62;94999.59;10353495;28;2338;-60
2022/05/30 03:18:51;;;;;;;;;;;;;;;20.52;40.74;95007.50;10357063;28;2401;-62
2022/05/30 03:23:53;;;;;;;;;;;;;;;20.52;40.64;95001.44;10355490;28;2381;-59
2022/05/30 03:28:53;;;;;;;;;;;;;;;20.50;40.61;95001.75;10362288;28;2357;-60
2022/05/30 03:33:54;;;;;;;;;;;;;;;20.50;40.60;94996.47;10362832;28;2298;-60
2022/05/30 03:38:54;;;;;;;;;;;;;;;20.49;40.43;94994.91;10357000;28;2343;-60
2022/05/30 03:44:00;;;;;;;;;;;;;;;20.48;40.76;95003.09;10368881;28;2334;-60
2022/05/30 03:49:01;;;;;;;;;;;;;;;20.49;40.45;94991.47;10376638;28;2540;-58
2022/05/30 03:54:01;;;;;;;;;;;;;;;20.48;40.66;95000.47;10370360;28;2336;-59
2022/05/30 03:59:02;;;;;;;;;;;;;;;20.48;40.61;95005.72;10377074;28;2251;-59
2022/05/30 04:04:03;;;;;;;;;;;;;;;20.49;40.82;95012.53;10360054;28;2279;-61
2022/05/30 04:09:04;;;;;;;;;;;;;;;20.48;40.70;95013.63;10353339;28;2316;-59
2022/05/30 04:14:05;;;;;;;;;;;;;;;20.49;40.77;95015.97;10336452;28;2248;-60
2022/05/30 04:19:06;;;;;;;;;;;;;;;20.48;40.76;95006.50;10352023;28;2329;-62
2022/05/30 04:24:07;;;;;;;;;;;;;;;20.49;40.74;95004.63;10336672;28;2334;-60
2022/05/30 04:29:07;;;;;;;;;;;;;;;20.49;41.04;95021.22;10356851;28;2354;-58
2022/05/30 04:34:08;;;;;;;;;;;;;;;20.49;40.93;95034.38;10334771;28;2418;-58
2022/05/30 04:39:09;;;;;;;;;;;;;;;20.51;41.03;95040.16;10330939;28;2353;-61
2022/05/30 04:44:10;;;;;;;;;;;;;;;20.49;40.91;95037.03;10340801;28;2331;-61
2022/05/30 04:49:10;;;;;;;;;;;;;;;20.50;40.89;95038.59;10335660;28;2228;-60
2022/05/30 04:54:11;;;;;;;;;;;;;;;20.51;40.97;95032.25;10349132;28;2166;-61
2022/05/30 04:59:11;;;;;;;;;;;;;;;20.50;40.88;95043.88;10353388;28;2369;-60
2022/05/30 05:04:12;;;;;;;;;;;;;;;20.51;40.73;95037.50;10346236;28;2366;-60
2022/05/30 05:09:15;;;;;;;;;;;;;;;20.51;40.85;95029.63;10342008;28;2329;-60
2022/05/30 05:14:16;;;;;;;;;;;;;;;20.52;40.70;95036.47;10336208;28;2222;-60
2022/05/30 05:19:17;;;;;;;;;;;;;;;20.53;40.89;95035.38;10336009;28;2426;-60
2022/05/30 05:24:17;;;;;;;;;;;;;;;20.53;40.66;95043.28;10342215;28;2372;-60
2022/05/30 05:29:17;;;;;;;;;;;;;;;20.55;40.85;95040.34;10341335;28;2421;-61
2022/05/30 05:34:18;;;;;;;;;;;;;;;20.55;40.84;95041.13;10334024;28;2104;-62
2022/05/30 05:39:19;;;;;;;;;;;;;;;20.55;40.76;95045.59;10331309;28;2377;-62
2022/05/30 05:44:19;;;;;;;;;;;;;;;20.55;40.83;95049.03;10335492;28;2440;-60
2022/05/30 05:49:19;;;;;;;;;;;;;;;20.56;40.80;95047.19;10335739;28;2420;-60
2022/05/30 05:54:22;;;;;;;;;;;;;;;20.54;40.92;95044.84;10336904;28;2325;-60
2022/05/30 05:59:22;;;;;;;;;;;;;;;20.54;40.79;95038.78;10364806;28;2307;-60
2022/05/30 06:04:23;;;;;;;;;;;;;;;20.53;40.74;95029.31;10357182;28;2261;-60
2022/05/30 06:09:24;;;;;;;;;;;;;;;20.52;40.81;95025.94;10349665;28;2276;-62
2022/05/30 06:14:24;;;;;;;;;;;;;;;20.54;40.92;95020.34;10345497;28;2193;-61
2022/05/30 06:19:24;;;;;;;;;;;;;;;20.54;40.74;95017.72;10353349;28;2252;-61
2022/05/30 06:24:25;;;;;;;;;;;;;;;20.53;40.95;95019.56;10366088;28;2221;-60
2022/05/30 06:29:26;;;;;;;;;;;;;;;20.53;40.89;95030.09;10351708;28;2339;-61
2022/05/30 06:34:26;;;;;;;;;;;;;;;20.53;40.98;95031.94;10349184;28;2418;-60
2022/05/30 06:39:27;;;;;;;;;;;;;;;20.51;40.87;95034.88;10351323;28;2201;-62
2022/05/30 06:44:27;;;;;;;;;;;;;;;20.53;40.87;95034.59;10338298;28;2297;-62
2022/05/30 06:49:28;;;;;;;;;;;;;;;20.53;41.04;95032.75;10350928;28;2181;-60
2022/05/30 06:54:28;;;;;;;;;;;;;;;20.54;41.13;95044.84;10342440;28;2099;-59
2022/05/30 06:59:29;;;;;;;;;;;;;;;20.54;41.17;95034.31;10351997;28;2249;-63
2022/05/30 07:04:30;;;;;;;;;;;;;;;20.54;41.23;95038.78;10351089;28;2308;-61
2022/05/30 07:09:31;;;;;;;;;;;;;;;20.56;41.34;95045.34;10358352;28;2232;-61
2022/05/30 07:14:31;;;;;;;;;;;;;;;20.57;41.43;95049.53;10357775;28;2194;-63
2022/05/30 07:19:32;;;;;;;;;;;;;;;20.56;41.44;95042.69;10364194;28;2117;-61
2022/05/30 07:24:32;;;;;;;;;;;;;;;20.56;41.30;95040.06;10354050;28;2287;-59
2022/05/30 07:29:33;;;;;;;;;;;;;;;20.57;41.26;95048.72;10363622;28;2421;-63
2022/05/30 07:34:34;;;;;;;;;;;;;;;20.57;41.26;95057.41;10354673;28;2318;-63
2022/05/30 07:39:37;;;;;;;;;;;;;;;20.57;41.62;95054.00;10343337;28;2399;-60
2022/05/30 07:44:37;;;;;;;;;;;;;;;20.58;41.39;95051.09;10358563;28;2212;-62
2022/05/30 07:49:38;;;;;;;;;;;;;;;20.59;41.47;95063.16;10338965;28;2238;-62
2022/05/30 07:54:38;;;;;;;;;;;;;;;20.58;41.49;95072.16;10354711;28;2581;-63
2022/05/30 07:59:38;;;;;;;;;;;;;;;20.59;41.54;95063.16;10334784;28;2292;-62
2022/05/30 08:04:39;;;;;;;;;;;;;;;20.61;41.42;95062.91;10341909;28;2222;-63
2022/05/30 08:09:39;;;;;;;;;;;;;;;20.59;41.25;95068.44;10339116;28;2281;-62
2022/05/30 08:14:45;;;;;;;;;;;;;;;20.59;41.54;95065.03;10353809;28;2447;-62
2022/05/30 08:19:46;;;;;;;;;;;;;;;20.60;41.54;95064.75;10358909;28;2547;-60
2022/05/30 08:24:53;;;;;;;;;;;;;;;20.60;41.31;95070.00;10335802;28;2634;-62
2022/05/30 08:29:53;;;;;;;;;;;;;;;20.60;41.59;95069.22;10355308;28;2446;-62
2022/05/30 08:34:54;;;;;;;;;;;;;;;20.59;41.67;95068.44;10364260;28;2319;-63
2022/05/30 08:45:16;;;;;;;;;;;;;;;20.60;41.63;95072.66;10365121;28;1444;-62
2022/05/30 08:50:21;;;;;;;;;;;;;;;20.61;41.52;95083.97;10357828;28;2428;-61
2022/05/30 08:55:22;;;;;;;;;;;;;;;20.62;41.37;95088.16;10353540;28;2259;-62
2022/05/30 09:00:48;;;;;;;;;;;;;;;20.61;41.77;95084.72;10335543;28;2274;-63
2022/05/30 09:06:12;;;;;;;;;;;;;;;20.62;41.71;95096.06;10342197;28;2300;-62
2022/05/30 09:11:18;;;;;;;;;;;;;;;20.62;41.25;95088.16;10343381;28;2291;-61
2022/05/30 09:16:30;;;;;;;;;;;;;;;20.62;41.21;95088.94;10318350;28;2086;-62
2022/05/30 09:21:31;;;;;;;;;;;;;;;20.62;41.24;95086.31;10360043;28;2280;-61
2022/05/30 09:26:40;;;;;;;;;;;;;;;20.63;41.41;95079.19;10335474;28;2291;-63
2022/05/30 09:31:58;;;;;;;;;;;;;;;20.62;40.81;95077.63;10335470;28;2274;-61
2022/05/30 09:36:59;;;;;;;;;;;;;;;20.63;41.74;95074.69;10336481;28;2221;-61
2022/05/30 09:42:01;;;;;;;;;;;;;;;20.62;41.31;95078.41;10346601;28;2345;-63
2022/05/30 09:47:03;;;;;;;;;;;;;;;20.59;41.20;95089.50;10369101;28;2180;-63
2022/05/30 09:52:19;;;;;;;;;;;;;;;20.59;41.34;95078.97;10357665;28;2257;-63
2022/05/30 09:57:25;;;;;;;;;;;;;;;20.60;41.30;95082.41;10320754;28;2251;-60
2022/05/30 10:02:25;;;;;;;;;;;;;;;20.58;41.39;95077.44;10311928;28;2247;-61
2022/05/30 10:07:26;;;;;;;;;;;;;;;20.59;41.49;95080.81;10345751;28;2578;-63
2022/05/30 10:12:31;;;;;;;;;;;;;;;20.57;41.49;95086.38;10325903;28;2299;-63
2022/05/30 10:17:32;;;;;;;;;;;;;;;20.61;41.58;95081.34;10335507;28;2300;-63
2022/05/30 10:28:17;;;;;;;;;;;;;;;20.59;41.72;95072.91;10345758;28;2527;-62
2022/05/30 10:33:20;;;;;;;;;;;;;;;20.59;41.85;95075.56;10324272;28;2181;-62
2022/05/30 10:38:21;;;;;;;;;;;;;;;20.62;41.84;95067.88;10355065;28;2209;-63
2022/05/30 10:43:23;;;;;;;;;;;;;;;20.64;41.83;95072.84;10362135;28;2157;-62
2022/05/30 10:48:38;;;;;;;;;;;;;;;20.61;41.74;95076.81;10361078;28;2089;-62
2022/05/30 10:53:41;;;;;;;;;;;;;;;20.61;42.11;95078.72;10337061;28;2141;-62
2022/05/30 10:58:44;;;;;;;;;;;;;;;20.60;42.53;95074.50;10355601;28;2225;-60
2022/05/30 11:03:50;;;;;;;;;;;;;;;20.62;43.17;95067.09;10320851;28;2385;-59
2022/05/30 11:09:03;;;;;;;;;;;;;;;20.65;43.61;95071.78;10354956;28;2192;-61
2022/05/30 11:14:22;;;;;;;;;;;;;;;20.67;43.80;95085.44;10356694;28;2133;-61
2022/05/30 11:19:38;;;;;;;;;;;;;;;20.66;44.34;95086.50;10353947;28;2232;-62
2022/05/30 11:24:38;;;;;;;;;;;;;;;20.70;44.04;95084.84;10343430;28;2606;-62
2022/05/30 11:29:51;;;;;;;;;;;;;;;20.68;44.26;95094.91;10331504;28;2335;-60
2022/05/30 11:35:05;;;;;;;;;;;;;;;20.68;44.33;95093.03;10359070;28;2256;-63
2022/05/30 11:40:12;;;;;;;;;;;;;;;20.69;44.21;95094.59;10322354;28;2327;-61
2022/05/30 11:45:31;;;;;;;;;;;;;;;20.67;44.28;95099.38;10365600;28;2145;-60
2022/05/30 11:50:33;;;;;;;;;;;;;;;20.69;44.21;95084.06;10357704;28;2347;-61
2022/05/30 11:55:42;;;;;;;;;;;;;;;20.70;44.19;95071.69;10338467;28;2177;-62
2022/05/30 12:00:47;;;;;;;;;;;;;;;20.68;44.62;95098.31;10335368;28;2329;-60
2022/05/30 12:06:07;;;;;;;;;;;;;;;20.67;44.75;95094.09;10318784;28;2448;-62
2022/05/30 12:11:14;;;;;;;;;;;;;;;20.73;44.39;95103.47;10343070;28;2257;-61
2022/05/30 12:16:17;;;;;;;;;;;;;;;20.68;44.73;95100.16;10329594;28;2306;-59
2022/05/30 12:26:48;;;;;;;;;;;;;;;20.67;44.43;95104.63;10323852;28;2348;-59
2022/05/30 12:31:48;;;;;;;;;;;;;;;20.67;44.54;95109.91;10331981;28;2328;-60
2022/05/30 12:36:48;;;;;;;;;;;;;;;20.67;44.50;95109.16;10327427;28;2334;-59
2022/05/30 12:41:56;;;;;;;;;;;;;;;20.67;44.60;95103.88;10348185;28;2308;-60
2022/05/30 12:47:07;;;;;;;;;;;;;;;20.67;44.61;95104.63;10334968;28;2158;-60
2022/05/30 12:52:18;;;;;;;;;;;;;;;20.68;44.75;95113.31;10331952;28;2197;-60
2022/05/30 12:57:38;;;;;;;;;;;;;;;20.67;45.12;95117.81;10351464;28;2292;-61
2022/05/30 13:02:57;;;;;;;;;;;;;;;20.69;44.69;95109.63;10337300;28;2182;-61
2022/05/30 13:07:58;;;;;;;;;;;;;;;20.71;44.68;95110.88;10334424;28;2349;-60
2022/05/30 13:13:04;;;;;;;;;;;;;;;20.70;44.69;95117.25;10321416;28;2112;-61
2022/05/30 13:18:12;;;;;;;;;;;;;;;20.63;44.74;95132.63;10336761;28;2324;-60
2022/05/30 13:23:15;;;;;;;;;;;;;;;20.65;44.91;95141.00;10342973;28;2337;-59
2022/05/30 13:28:22;;;;;;;;;;;;;;;20.63;44.86;95137.13;10333122;28;2281;-61
2022/05/30 13:33:24;;;;;;;;;;;;;;;20.63;44.74;95145.78;10346571;28;2319;-61
2022/05/30 13:38:27;;;;;;;;;;;;;;;20.63;44.98;95132.63;10367115;28;2247;-62
2022/05/30 13:43:32;;;;;;;;;;;;;;;20.64;44.87;95144.72;10325790;28;2571;-59
2022/05/30 13:48:33;;;;;;;;;;;;;;;20.70;44.62;95142.78;10349001;28;2436;-64
2022/05/30 13:53:35;;;;;;;;;;;;;;;20.65;44.99;95145.53;10329625;28;2273;-61
2022/05/30 13:58:36;;;;;;;;;;;;;;;20.62;44.91;95146.88;10341928;28;2170;-61
2022/05/30 14:03:42;;;;;;;;;;;;;;;20.63;45.02;95147.66;10327584;28;2181;-61
2022/05/30 14:08:44;;;;;;;;;;;;;;;20.61;44.92;95150.56;10336898;28;2344;-59
2022/05/30 14:13:44;;;;;;;;;;;;;;;20.62;44.87;95152.13;10329450;28;2413;-60
2022/05/30 14:18:54;;;;;;;;;;;;;;;20.64;44.87;95155.25;10338862;28;2269;-61
2022/05/30 14:23:58;;;;;;;;;;;;;;;20.63;45.06;95163.47;10334612;28;2198;-60
2022/05/30 14:29:28;;;;;;;;;;;;;;;20.64;44.91;95159.75;10339679;28;2301;-61
2022/05/30 14:34:36;;;;;;;;;;;;;;;20.62;45.06;95160.03;10345840;28;2398;-62
2022/05/30 14:39:43;;;;;;;;;;;;;;;20.61;45.09;95161.09;10338845;28;2313;-61
2022/05/30 14:44:49;;;;;;;;;;;;;;;20.61;45.21;95166.34;10349648;28;2242;-59
2022/05/30 14:49:54;;;;;;;;;;;;;;;20.63;45.35;95163.47;10362603;28;2249;-60
2022/05/30 14:54:54;;;;;;;;;;;;;;;20.63;45.25;95158.94;10363129;28;2311;-59
2022/05/30 14:59:55;;;;;;;;;;;;;;;20.63;45.18;95156.31;10377922;28;2263;-61
2022/05/30 15:04:55;;;;;;;;;;;;;;;20.63;45.43;95160.81;10361776;28;2235;-62
2022/05/30 15:09:56;;;;;;;;;;;;;;;20.62;45.35;95173.22;10363764;28;2386;-62
2022/05/30 15:14:56;;;;;;;;;;;;;;;20.61;45.63;95182.16;10377449;28;2154;-58
2022/05/30 15:19:57;;;;;;;;;;;;;;;20.61;45.68;95187.44;10377969;28;2162;-61
2022/05/30 15:25:04;;;;;;;;;;;;;;;20.59;45.60;95184.28;10356541;28;2304;-61
2022/05/30 15:30:06;;;;;;;;;;;;;;;20.61;45.37;95186.66;10363658;28;2347;-61
2022/05/30 15:35:07;;;;;;;;;;;;;;;20.59;45.44;95178.25;10360683;28;2275;-60
2022/05/30 15:40:08;;;;;;;;;;;;;;;20.58;45.71;95180.13;10346673;28;2173;-59
2022/05/30 15:45:09;;;;;;;;;;;;;;;20.62;47.08;95177.69;10355229;28;2260;-62
2022/05/30 15:50:09;;;;;;;;;;;;;;;20.65;47.61;95171.84;10323908;28;2184;-57
2022/05/30 16:00:46;;;;;;;;;;;;;;;20.65;47.63;95180.50;10296481;28;2330;-60
2022/05/30 16:05:48;;;;;;;;;;;;;;;20.65;47.67;95180.50;10347189;28;2363;-60
2022/05/30 16:10:49;;;;;;;;;;;;;;;20.65;47.68;95185.78;10350722;28;2385;-61
2022/05/30 16:15:52;;;;;;;;;;;;;;;20.66;47.66;95176.03;10354861;28;2383;-62
2022/05/30 16:20:53;;;;;;;;;;;;;;;20.66;47.76;95179.47;10358717;28;2300;-61
2022/05/30 16:25:58;;;;;;;;;;;;;;;20.65;47.67;95177.13;10357428;28;2375;-61
2022/05/30 16:30:58;;;;;;;;;;;;;;;20.66;47.76;95176.03;10357505;28;2149;-60
2022/05/30 16:35:59;;;;;;;;;;;;;;;20.65;47.68;95177.13;10358471;28;2266;-62
2022/05/30 16:41:00;;;;;;;;;;;;;;;20.64;47.68;95184.22;10337764;28;2377;-61
2022/05/30 16:46:00;;;;;;;;;;;;;;;20.63;47.86;95184.53;10341358;28;2570;-63
2022/05/30 16:51:00;;;;;;;;;;;;;;;20.62;47.76;95191.63;10337026;28;2368;-62
2022/05/30 16:56:01;;;;;;;;;;;;;;;20.63;47.94;95195.06;10347687;28;2190;-61
2022/05/30 17:01:02;;;;;;;;;;;;;;;20.62;47.86;95196.91;10350811;28;2244;-61
2022/05/30 17:06:04;;;;;;;;;;;;;;;20.63;47.68;95195.06;10355488;28;2184;-62
2022/05/30 17:11:06;;;;;;;;;;;;;;;20.61;47.72;95200.59;10356347;28;2150;-63
2022/05/30 17:16:16;;;;;;;;;;;;;;;20.61;47.88;95210.38;10357184;28;2196;-62
2022/05/30 17:21:17;;;;;;;;;;;;;;;20.61;47.95;95213.00;10361278;28;2267;-62
2022/05/30 17:29:05;;;;;;;;;;;;;;;20.62;47.68;95207.44;10352846;28;2309;-62
2022/05/30 17:31:38;;;;;;;;;;;;;;;20.60;47.83;95216.69;10352359;28;2260;-61
2022/05/30 17:36:39;;;;;;;;;;;;;;;20.61;47.50;95223.53;10375730;28;2284;-58
2022/05/30 17:41:39;;;;;;;;;;;;;;;20.60;47.71;95232.50;10359744;28;2419;-60
2022/05/30 17:47:00;;;;;;;;;;;;;;;20.59;47.44;95228.28;10360411;28;2316;-63
2022/05/30 17:52:03;;;;;;;;;;;;;;;20.59;47.43;95236.19;10347926;28;2293;-63
2022/05/30 17:57:04;;;;;;;;;;;;;;;20.59;47.46;95244.06;10365375;28;2229;-60
2022/05/30 18:02:05;;;;;;;;;;;;;;;20.59;47.49;95246.72;10350101;28;2325;-62
2022/05/30 18:07:24;;;;;;;;;;;;;;;20.60;47.33;95245.66;10362816;28;2277;-62
2022/05/30 18:12:27;;;;;;;;;;;;;;;20.57;47.36;95249.63;10350021;28;2329;-61
2022/05/30 18:17:32;;;;;;;;;;;;;;;20.57;47.28;95259.38;10338316;28;2175;-62
2022/05/30 18:22:36;;;;;;;;;;;;;;;20.55;47.42;95259.66;10352001;28;2566;-63
2022/05/30 18:27:40;;;;;;;;;;;;;;;20.54;47.19;95263.38;10352778;28;2745;-61
2022/05/30 18:33:00;;;;;;;;;;;;;;;20.53;47.24;95261.81;10346289;28;2220;-64
2022/05/30 18:38:04;;;;;;;;;;;;;;;20.54;47.16;95268.66;10347597;28;2324;-61
2022/05/30 18:43:05;;;;;;;;;;;;;;;20.53;46.96;95274.19;10333641;28;2194;-63
2022/05/30 18:48:14;;;;;;;;;;;;;;;20.53;47.06;95277.59;10348100;28;2166;-60
2022/05/30 18:53:14;;;;;;;;;;;;;;;20.53;46.88;95277.59;10319218;28;2200;-60
2022/05/30 18:58:21;;;;;;;;;;;;;;;20.52;46.97;95283.94;10340030;28;2325;-59
2022/05/30 19:03:24;;;;;;;;;;;;;;;20.51;47.01;95287.63;10338435;28;2143;-61
2022/05/30 19:08:25;;;;;;;;;;;;;;;20.51;46.86;95287.63;10325795;28;2375;-62
2022/05/30 19:13:29;;;;;;;;;;;;;;;20.51;46.92;95300.00;10340841;28;2274;-61
2022/05/30 19:18:34;;;;;;;;;;;;;;;20.50;46.76;95298.47;10343524;28;2210;-61
2022/05/30 19:23:35;;;;;;;;;;;;;;;20.51;46.69;95308.69;10314698;28;2490;-63
2022/05/30 19:28:37;;;;;;;;;;;;;;;20.49;46.79;95315.31;10346458;28;2288;-62
2022/05/30 19:33:37;;;;;;;;;;;;;;;20.48;46.66;95322.44;10334902;28;2214;-63
2022/05/30 19:38:38;;;;;;;;;;;;;;;20.47;46.72;95328.75;10357738;28;2272;-59
2022/05/30 19:43:40;;;;;;;;;;;;;;;20.48;46.41;95332.19;10333630;28;2174;-60
2022/05/30 19:48:40;;;;;;;;;;;;;;;20.46;46.40;95324.56;10360171;28;2292;-62
2022/05/30 19:53:40;;;;;;;;;;;;;;;20.47;46.23;95334.03;10353973;28;2185;-61
2022/05/30 19:58:41;;;;;;;;;;;;;;;20.46;46.27;95342.22;10356057;28;2417;-62
2022/05/30 20:03:41;;;;;;;;;;;;;;;20.46;46.38;95336.94;10351719;28;2288;-61
2022/05/30 20:08:41;;;;;;;;;;;;;;;20.44;46.22;95339.88;10356801;28;2291;-62
2022/05/30 20:13:42;;;;;;;;;;;;;;;20.45;46.36;95349.31;10352587;28;2248;-61
2022/05/30 20:18:44;;;;;;;;;;;;;;;20.47;46.06;95354.31;10352041;28;2267;-60
2022/05/30 20:23:46;;;;;;;;;;;;;;;20.44;46.00;95349.63;10333706;28;2640;-63
2022/05/30 20:28:47;;;;;;;;;;;;;;;20.43;46.13;95363.81;10354193;28;2208;-63
2022/05/30 20:33:47;;;;;;;;;;;;;;;20.42;45.89;95360.44;10346436;28;2268;-62
2022/05/30 20:38:48;;;;;;;;;;;;;;;20.42;45.83;95360.44;10338783;28;2318;-60
2022/05/30 20:43:50;;;;;;;;;;;;;;;20.42;45.93;95360.44;10336078;28;2408;-61
2022/05/30 20:48:50;;;;;;;;;;;;;;;20.42;45.96;95362.28;10357122;28;2595;-60
2022/05/30 20:53:51;;;;;;;;;;;;;;;20.41;45.82;95364.13;10350051;28;2269;-62
2022/05/30 20:58:52;;;;;;;;;;;;;;;20.41;45.58;95358.06;10347427;28;2295;-63
2022/05/30 21:03:52;;;;;;;;;;;;;;;20.39;45.70;95352.28;10353946;28;2430;-61
2022/05/30 21:08:53;;;;;;;;;;;;;;;20.39;45.53;95353.09;10353571;28;2272;-62
2022/05/30 21:13:54;;;;;;;;;;;;;;;20.40;45.59;95361.78;10334669;28;2340;-61
2022/05/30 21:18:56;;;;;;;;;;;;;;;20.39;45.42;95353.09;10349911;28;2419;-61
2022/05/30 21:23:56;;;;;;;;;;;;;;;20.39;45.40;95353.09;10334826;28;2562;-61
2022/05/30 21:28:57;;;;;;;;;;;;;;;20.38;45.47;95358.63;10338603;28;2339;-63
2022/05/30 21:33:59;;;;;;;;;;;;;;;20.38;45.31;95356.00;10340908;28;2201;-62
2022/05/30 21:39:00;;;;;;;;;;;;;;;20.36;45.22;95358.91;10332218;28;2181;-64
2022/05/30 21:44:00;;;;;;;;;;;;;;;20.38;45.22;95359.41;10351405;28;2157;-63
2022/05/30 21:49:01;;;;;;;;;;;;;;;20.36;45.11;95356.25;10356212;28;2225;-63
2022/05/30 21:54:01;;;;;;;;;;;;;;;20.38;45.15;95366.53;10351617;28;2279;-62
2022/05/30 21:59:03;;;;;;;;;;;;;;;20.36;45.19;95358.91;10349306;28;2165;-61
2022/05/30 22:04:04;;;;;;;;;;;;;;;20.34;45.06;95361.03;10347810;28;2149;-63
2022/05/30 22:09:04;;;;;;;;;;;;;;;20.36;45.06;95364.16;10351550;28;2800;-61
2022/05/30 22:14:05;;;;;;;;;;;;;;;20.35;45.09;95362.59;10334417;28;2344;-61
2022/05/30 22:19:06;;;;;;;;;;;;;;;20.35;44.84;95367.09;10334318;28;2205;-62
2022/05/30 22:24:07;;;;;;;;;;;;;;;20.33;44.82;95359.47;10335253;28;2272;-62
2022/05/30 22:29:07;;;;;;;;;;;;;;;20.33;44.98;95350.78;10338735;28;2217;-60
2022/05/30 22:34:08;;;;;;;;;;;;;;;20.33;44.92;95362.09;10351039;28;2141;-59
2022/05/30 22:39:09;;;;;;;;;;;;;;;20.32;44.81;95357.88;10338949;28;2272;-59
2022/05/30 22:44:09;;;;;;;;;;;;;;;20.33;44.69;95356.06;10342942;28;2314;-61
2022/05/30 22:49:10;;;;;;;;;;;;;;;20.32;44.69;95355.25;10339290;28;2311;-59
2022/05/30 22:54:11;;;;;;;;;;;;;;;20.34;44.62;95357.63;10344418;28;2263;-62
2022/05/30 22:59:11;;;;;;;;;;;;;;;20.32;44.53;95347.38;10357246;28;2384;-61
2022/05/30 23:04:12;;;;;;;;;;;;;;;20.31;44.51;95345.81;10357464;28;2307;-59
2022/05/30 23:09:12;;;;;;;;;;;;;;;20.31;44.57;95351.06;10360566;28;2395;-61
2022/05/30 23:14:14;;;;;;;;;;;;;;;20.30;44.33;95354.75;10359120;28;2244;-62
2022/05/30 23:19:15;;;;;;;;;;;;;;;20.31;44.22;95351.06;10323699;28;2197;-62
2022/05/30 23:24:15;;;;;;;;;;;;;;;20.30;44.26;95343.47;10314612;28;2273;-58
2022/05/30 23:29:15;;;;;;;;;;;;;;;20.30;44.40;95344.22;10344288;28;2300;-57
2022/05/30 23:34:17;;;;;;;;;;;;;;;20.30;44.22;95333.69;10331249;28;2232;-62
2022/05/30 23:39:17;;;;;;;;;;;;;;;20.28;43.99;95336.63;10338592;28;2180;-59
2022/05/30 23:44:35;;;;;;;;;;;;;;;20.30;44.03;95333.69;10332830;28;2170;-61
2022/05/30 23:49:36;;;;;;;;;;;;;;;20.28;44.00;95341.88;10338220;28;2311;-57
2022/05/30 23:54:37;;;;;;;;;;;;;;;20.28;44.08;95326.09;10334588;28;2372;-62
2022/05/30 23:59:37;;;;;;;;;;;;;;;20.28;44.06;95317.41;10341144;28;2299;-62
